Time;durP1;ratioP1;P1;durP2;ratioP2;P2;SDS_P1;SDS_P2;PMS_P1;PMS_P2;Temp;Humidity;BMP_temperature;BMP_pressure;BME280_temperature;BME280_humidity;BME280_pressure;Samples;Min_cycle;Max_cycle;Signal;HPM_P1;HPM_P2
2023/04/18 00:02:00;;;;;;;22.97;17.60;;;6.20;80.90;;;;;;4917000;29;20243;-87
2023/04/18 00:04:26;;;;;;;20.60;17.17;;;6.20;80.90;;;;;;4918449;29;20181;-86
2023/04/18 00:06:51;;;;;;;26.27;18.20;;;6.20;80.90;;;;;;4918059;29;20204;-87
2023/04/18 00:09:17;;;;;;;20.23;16.53;;;6.20;81.20;;;;;;4918133;29;20542;-87
2023/04/18 00:11:42;;;;;;;23.20;16.53;;;6.20;81.30;;;;;;4916253;29;20173;-87
2023/04/18 00:14:09;;;;;;;22.73;16.73;;;6.20;81.30;;;;;;4916717;29;20197;-87
2023/04/18 00:16:35;;;;;;;22.23;17.27;;;6.20;81.30;;;;;;4916684;29;20224;-87
2023/04/18 00:19:02;;;;;;;21.13;17.67;;;6.20;81.40;;;;;;4916617;29;20185;-87
2023/04/18 00:21:28;;;;;;;22.17;17.13;;;6.20;81.50;;;;;;4917881;29;20171;-87
2023/04/18 00:23:54;;;;;;;21.97;18.27;;;6.20;81.60;;;;;;4916533;29;20208;-87
2023/04/18 00:26:20;;;;;;;27.70;19.07;;;6.20;81.50;;;;;;4917858;29;20260;-87
2023/04/18 00:28:45;;;;;;;20.67;17.53;;;6.20;81.80;;;;;;4917691;29;20662;-87
2023/04/18 00:31:11;;;;;;;26.57;18.80;;;6.20;81.90;;;;;;4916498;29;20276;-87
2023/04/18 00:33:36;;;;;;;30.57;18.17;;;6.10;81.90;;;;;;4916611;29;20203;-87
2023/04/18 00:36:02;;;;;;;26.50;17.77;;;6.20;82.10;;;;;;4917675;29;20179;-87
2023/04/18 00:38:27;;;;;;;25.73;17.47;;;6.10;82.20;;;;;;4917455;29;20196;-87
2023/04/18 00:40:53;;;;;;;26.07;18.70;;;6.10;82.30;;;;;;4916296;29;20506;-88
2023/04/18 00:43:22;;;;;;;23.23;18.03;;;6.20;82.20;;;;;;4916264;29;20721;-87
2023/04/18 00:45:47;;;;;;;23.23;18.50;;;6.20;82.20;;;;;;4916219;29;20192;-87
2023/04/18 00:48:13;;;;;;;23.47;18.83;;;6.20;82.20;;;;;;4916108;29;20218;-87
2023/04/18 00:50:40;;;;;;;29.30;19.47;;;6.20;82.10;;;;;;4916244;29;20556;-87
2023/04/18 00:53:07;;;;;;;19.33;16.60;;;6.20;82.10;;;;;;4917744;29;20243;-87
2023/04/18 00:55:33;;;;;;;22.07;18.83;;;6.20;82.10;;;;;;4916051;29;20184;-88
2023/04/18 00:57:59;;;;;;;21.77;17.67;;;6.20;82.00;;;;;;4917258;29;20663;-86
2023/04/18 01:00:25;;;;;;;25.03;18.83;;;6.20;82.20;;;;;;4916129;29;20192;-88
2023/04/18 01:02:54;;;;;;;20.37;18.17;;;6.20;82.20;;;;;;4915803;29;20211;-84
2023/04/18 01:05:23;;;;;;;20.10;17.47;;;6.10;82.30;;;;;;4917114;29;20341;-88
2023/04/18 01:07:48;;;;;;;22.10;18.03;;;6.10;82.30;;;;;;4915884;29;20599;-88
2023/04/18 01:10:14;;;;;;;22.33;18.10;;;6.00;82.20;;;;;;4915989;29;20188;-87
2023/04/18 01:12:40;;;;;;;22.73;18.83;;;6.00;82.20;;;;;;4915806;29;20294;-88
2023/04/18 01:15:06;;;;;;;23.87;18.83;;;5.90;82.30;;;;;;4917078;29;20217;-87
2023/04/18 01:17:33;;;;;;;21.17;18.47;;;5.90;82.40;;;;;;4916262;29;20529;-87
2023/04/18 01:20:00;;;;;;;22.07;17.43;;;5.80;82.50;;;;;;4915750;29;20230;-86
2023/04/18 01:22:27;;;;;;;19.47;17.20;;;5.80;82.80;;;;;;4915850;29;20343;-86
2023/04/18 01:24:53;;;;;;;22.23;18.23;;;5.60;83.00;;;;;;4918424;29;20187;-86
2023/04/18 01:27:18;;;;;;;28.47;17.73;;;5.60;83.30;;;;;;4921061;29;20552;-86
2023/04/18 01:29:44;;;;;;;25.67;18.90;;;5.50;83.40;;;;;;4919573;29;20583;-86
2023/04/18 01:32:10;;;;;;;21.90;18.57;;;5.50;83.60;;;;;;4919551;29;20176;-86
2023/04/18 01:34:35;;;;;;;26.50;19.27;;;5.40;83.70;;;;;;4920813;29;20188;-86
2023/04/18 01:37:01;;;;;;;23.33;18.77;;;5.30;83.80;;;;;;4919579;29;20191;-86
2023/04/18 01:39:27;;;;;;;20.40;18.13;;;5.30;84.00;;;;;;4920691;29;20180;-87
2023/04/18 01:41:53;;;;;;;22.87;18.37;;;5.20;84.20;;;;;;4919416;29;20184;-86
2023/04/18 01:44:18;;;;;;;23.17;18.80;;;5.10;84.50;;;;;;4919114;29;20223;-87
2023/04/18 01:46:44;;;;;;;21.20;18.53;;;5.00;84.70;;;;;;4919482;29;20207;-86
2023/04/18 01:49:09;;;;;;;26.90;20.03;;;5.00;84.90;;;;;;4919358;29;20185;-86
2023/04/18 01:51:37;;;;;;;24.03;19.23;;;4.90;85.10;;;;;;4919456;29;20218;-86
2023/04/18 01:54:03;;;;;;;21.50;19.20;;;4.90;85.20;;;;;;4919090;29;20689;-86
2023/04/18 01:56:29;;;;;;;22.37;19.73;;;4.80;85.40;;;;;;4920432;29;20311;-86
2023/04/18 01:58:55;;;;;;;26.87;19.47;;;4.80;85.40;;;;;;4919111;29;20314;-86
2023/04/18 02:01:20;;;;;;;25.40;19.10;;;4.70;85.50;;;;;;4919003;29;20696;-87
2023/04/18 02:03:46;;;;;;;27.10;20.17;;;4.60;85.50;;;;;;4919087;29;20212;-86
2023/04/18 02:06:11;;;;;;;25.03;20.33;;;4.50;85.60;;;;;;4920180;29;20192;-86
2023/04/18 02:08:37;;;;;;;22.47;19.30;;;4.50;85.80;;;;;;4918961;29;20198;-86
2023/04/18 02:11:02;;;;;;;26.43;18.83;;;4.40;85.90;;;;;;4918881;29;20216;-86
2023/04/18 02:13:28;;;;;;;24.77;19.00;;;4.40;86.00;;;;;;4919988;29;20228;-86
2023/04/18 02:15:54;;;;;;;22.17;18.50;;;4.30;86.10;;;;;;4918855;29;20233;-87
2023/04/18 02:18:20;;;;;;;21.87;19.27;;;4.30;86.10;;;;;;4918744;29;20191;-86
2023/04/18 02:20:46;;;;;;;23.87;18.63;;;4.30;86.20;;;;;;4920156;29;20594;-86
2023/04/18 02:23:11;;;;;;;27.00;20.50;;;4.30;86.30;;;;;;4920051;29;20201;-86
2023/04/18 02:25:37;;;;;;;27.33;19.17;;;4.30;86.30;;;;;;4920240;29;20169;-86
2023/04/18 02:28:03;;;;;;;25.20;19.20;;;4.20;86.30;;;;;;4918476;29;20711;-86
2023/04/18 02:30:28;;;;;;;30.10;19.97;;;4.20;86.40;;;;;;4918468;29;20175;-86
2023/04/18 02:32:57;;;;;;;23.03;20.30;;;4.20;86.50;;;;;;4920033;29;20195;-86
2023/04/18 02:35:24;;;;;;;26.00;20.50;;;4.10;86.60;;;;;;4917941;29;20265;-86
2023/04/18 02:37:50;;;;;;;24.97;20.00;;;4.20;86.80;;;;;;4919598;29;20174;-86
2023/04/18 02:40:15;;;;;;;26.20;18.80;;;4.10;86.80;;;;;;4918407;29;20188;-86
2023/04/18 02:42:41;;;;;;;27.53;20.93;;;4.00;86.90;;;;;;4919473;29;20211;-86
2023/04/18 02:45:07;;;;;;;25.50;19.67;;;4.00;87.00;;;;;;4918196;29;20245;-86
2023/04/18 02:47:32;;;;;;;22.97;19.57;;;4.00;87.20;;;;;;4918323;29;20208;-86
2023/04/18 02:49:58;;;;;;;27.50;20.87;;;4.00;87.30;;;;;;4918529;29;20644;-86
2023/04/18 02:52:24;;;;;;;22.50;19.53;;;4.00;87.40;;;;;;4918292;29;20696;-86
2023/04/18 02:54:50;;;;;;;26.97;21.07;;;4.00;87.50;;;;;;4919401;29;20205;-86
2023/04/18 02:57:15;;;;;;;25.53;20.37;;;4.00;87.60;;;;;;4919312;29;20181;-86
2023/04/18 02:59:41;;;;;;;23.50;19.80;;;4.00;87.60;;;;;;4919293;29;20224;-86
2023/04/18 03:02:06;;;;;;;26.23;20.00;;;3.90;87.60;;;;;;4918089;29;20189;-85
2023/04/18 03:04:32;;;;;;;26.63;20.30;;;3.80;87.60;;;;;;4917902;29;20185;-86
2023/04/18 03:07:00;;;;;;;22.57;18.20;;;3.70;87.60;;;;;;4917844;29;20309;-86
2023/04/18 03:09:26;;;;;;;22.03;18.60;;;3.60;87.70;;;;;;4919030;29;20188;-86
2023/04/18 03:11:51;;;;;;;23.90;18.57;;;3.60;87.70;;;;;;4917874;29;20652;-86
2023/04/18 03:14:17;;;;;;;23.80;20.17;;;3.50;87.70;;;;;;4917721;29;20201;-85
2023/04/18 03:16:42;;;;;;;25.00;19.97;;;3.50;87.90;;;;;;4917792;29;20192;-86
2023/04/18 03:19:08;;;;;;;25.70;19.63;;;3.50;88.00;;;;;;4918881;29;20268;-86
2023/04/18 03:21:34;;;;;;;25.87;19.37;;;3.50;88.00;;;;;;4918787;29;20184;-86
2023/04/18 03:23:59;;;;;;;27.63;19.87;;;3.50;88.10;;;;;;4917825;29;20695;-86
2023/04/18 03:26:25;;;;;;;23.23;19.50;;;3.50;88.10;;;;;;4918734;29;20178;-86
2023/04/18 03:28:51;;;;;;;29.07;20.90;;;3.50;88.10;;;;;;4917670;29;20661;-86
2023/04/18 03:31:16;;;;;;;29.97;20.50;;;3.50;88.10;;;;;;4917499;29;20183;-86
2023/04/18 03:33:43;;;;;;;26.97;20.67;;;3.50;88.20;;;;;;4917442;29;20207;-86
2023/04/18 03:36:09;;;;;;;33.87;22.37;;;3.50;88.20;;;;;;4918477;29;20177;-86
2023/04/18 03:38:35;;;;;;;28.93;21.07;;;3.50;88.20;;;;;;4917326;29;20219;-86
2023/04/18 03:41:00;;;;;;;26.33;21.97;;;3.50;88.30;;;;;;4917333;29;20318;-86
2023/04/18 03:43:26;;;;;;;27.33;22.07;;;3.50;88.40;;;;;;4917156;29;20248;-86
2023/04/18 03:45:51;;;;;;;29.93;23.00;;;3.60;88.40;;;;;;4917963;29;20184;-86
2023/04/18 03:48:17;;;;;;;31.13;22.03;;;3.60;88.50;;;;;;4917931;29;20287;-86
2023/04/18 03:50:42;;;;;;;31.43;22.90;;;3.60;88.60;;;;;;4917129;29;20199;-86
2023/04/18 03:53:08;;;;;;;30.37;22.93;;;3.60;88.60;;;;;;4917128;29;20189;-86
2023/04/18 03:55:34;;;;;;;28.10;22.00;;;3.60;88.70;;;;;;4917112;29;20217;-88
2023/04/18 03:57:59;;;;;;;29.87;22.33;;;3.60;88.70;;;;;;4917072;29;20188;-86
2023/04/18 04:00:25;;;;;;;34.40;22.33;;;3.50;88.60;;;;;;4917070;29;20181;-86
2023/04/18 04:02:51;;;;;;;32.97;22.77;;;3.50;88.60;;;;;;4917068;29;20209;-86
2023/04/18 04:05:16;;;;;;;28.17;22.10;;;3.50;88.60;;;;;;4916943;29;20185;-86
2023/04/18 04:07:42;;;;;;;29.53;21.87;;;3.40;88.50;;;;;;4916721;29;20676;-86
2023/04/18 04:10:08;;;;;;;27.13;21.83;;;3.40;88.50;;;;;;4918326;29;20177;-86
2023/04/18 04:12:34;;;;;;;27.17;21.43;;;3.30;88.40;;;;;;4916621;29;20340;-86
2023/04/18 04:15:00;;;;;;;28.10;21.97;;;3.30;88.40;;;;;;4916781;29;20558;-86
2023/04/18 04:17:25;;;;;;;29.87;22.37;;;3.30;88.40;;;;;;4916776;29;20181;-86
2023/04/18 04:19:51;;;;;;;30.10;21.93;;;3.30;88.40;;;;;;4916586;29;20189;-86
2023/04/18 04:22:17;;;;;;;26.40;21.40;;;3.30;88.40;;;;;;4916473;29;20292;-86
2023/04/18 04:24:42;;;;;;;28.43;21.07;;;3.30;88.40;;;;;;4916558;29;20201;-86
2023/04/18 04:27:09;;;;;;;29.67;22.47;;;3.30;88.40;;;;;;4918019;29;20714;-86
2023/04/18 04:29:37;;;;;;;27.73;20.83;;;3.30;88.40;;;;;;4916487;29;20185;-87
2023/04/18 04:32:04;;;;;;;28.67;21.07;;;3.40;88.40;;;;;;4917539;29;20220;-85
2023/04/18 04:34:29;;;;;;;31.07;22.27;;;3.40;88.30;;;;;;4917791;29;20260;-86
2023/04/18 04:36:55;;;;;;;29.93;21.50;;;3.40;88.20;;;;;;4917512;29;20260;-86
2023/04/18 04:39:21;;;;;;;30.47;21.43;;;3.50;88.10;;;;;;4916370;29;20691;-86
2023/04/18 04:41:47;;;;;;;30.97;22.17;;;3.50;88.00;;;;;;4917434;29;20651;-86
2023/04/18 04:44:16;;;;;;;27.33;22.53;;;3.50;88.00;;;;;;4917223;29;20721;-86
2023/04/18 04:46:43;;;;;;;28.23;21.37;;;3.60;87.90;;;;;;4916065;29;20567;-86
2023/04/18 04:49:12;;;;;;;28.40;21.83;;;3.70;87.70;;;;;;4916192;29;20605;-86
2023/04/18 04:51:39;;;;;;;32.43;21.37;;;3.70;87.60;;;;;;4916166;29;20201;-86
2023/04/18 04:54:04;;;;;;;23.17;19.47;;;3.80;87.30;;;;;;4915993;29;20200;-86
2023/04/18 04:56:30;;;;;;;25.20;20.27;;;3.80;87.20;;;;;;4917553;29;20223;-86
2023/04/18 04:58:56;;;;;;;28.43;20.43;;;3.90;86.90;;;;;;4915900;29;20208;-86
2023/04/18 05:01:21;;;;;;;31.30;21.07;;;4.00;86.80;;;;;;4917155;29;20308;-86
2023/04/18 05:03:48;;;;;;;37.33;21.33;;;4.10;86.60;;;;;;4915985;29;20201;-86
2023/04/18 05:06:19;;;;;;;34.07;19.37;;;4.20;86.60;;;;;;4915885;29;20260;-86
2023/04/18 05:08:48;;;;;;;27.50;19.50;;;4.30;86.50;;;;;;4915949;29;20189;-86
2023/04/18 05:11:14;;;;;;;23.40;19.60;;;4.30;86.40;;;;;;4917323;29;20172;-86
2023/04/18 05:13:39;;;;;;;27.17;17.83;;;4.40;86.40;;;;;;4915802;29;20205;-86
2023/04/18 05:16:06;;;;;;;27.80;19.27;;;4.40;86.40;;;;;;4915898;29;20192;-86
2023/04/18 05:18:31;;;;;;;30.70;19.33;;;4.50;86.10;;;;;;4915735;29;20183;-86
2023/04/18 05:20:57;;;;;;;25.57;18.53;;;4.60;86.10;;;;;;4916966;29;20180;-86
2023/04/18 05:23:23;;;;;;;26.77;18.23;;;4.70;86.10;;;;;;4915755;29;20194;-85
2023/04/18 05:25:48;;;;;;;23.37;18.53;;;4.80;86.10;;;;;;4917238;29;20662;-86
2023/04/18 05:28:14;;;;;;;25.27;17.73;;;4.80;85.90;;;;;;4916871;29;20210;-86
2023/04/18 05:30:40;;;;;;;22.83;17.93;;;4.90;85.80;;;;;;4916827;29;20209;-86
2023/04/18 05:33:06;;;;;;;25.33;17.63;;;5.00;85.70;;;;;;4915614;29;20289;-86
2023/04/18 05:35:31;;;;;;;24.63;16.60;;;5.10;85.10;;;;;;4915614;29;20182;-86
2023/04/18 05:37:57;;;;;;;22.53;15.77;;;5.20;85.00;;;;;;4915874;29;20183;-86
2023/04/18 05:40:23;;;;;;;22.90;17.93;;;5.30;84.90;;;;;;4915801;29;20217;-86
2023/04/18 05:42:49;;;;;;;19.63;16.00;;;5.30;84.30;;;;;;4916975;29;20206;-86
2023/04/18 05:45:14;;;;;;;25.43;15.27;;;5.30;84.40;;;;;;4915528;29;20207;-86
2023/04/18 05:47:40;;;;;;;18.87;16.27;;;5.40;84.20;;;;;;4915629;29;20211;-86
2023/04/18 05:50:06;;;;;;;23.00;16.27;;;5.50;83.90;;;;;;4915576;29;20201;-86
2023/04/18 05:52:32;;;;;;;20.83;16.00;;;5.60;83.70;;;;;;4915461;29;20203;-86
2023/04/18 05:54:57;;;;;;;21.73;16.77;;;5.60;83.40;;;;;;4915576;29;20619;-86
2023/04/18 05:57:23;;;;;;;19.93;15.23;;;5.70;83.40;;;;;;4915482;29;20185;-86
2023/04/18 05:59:48;;;;;;;17.67;14.83;;;5.80;83.00;;;;;;4915450;29;20537;-86
2023/04/18 06:02:14;;;;;;;21.13;15.97;;;5.80;82.90;;;;;;4915386;29;20188;-85
2023/04/18 06:04:40;;;;;;;24.97;17.10;;;5.90;83.30;;;;;;4916750;29;20258;-86
2023/04/18 06:07:07;;;;;;;17.60;13.73;;;6.00;83.00;;;;;;4916525;29;20307;-84
2023/04/18 06:09:33;;;;;;;18.80;15.03;;;6.00;82.80;;;;;;4917025;29;20180;-85
2023/04/18 06:11:58;;;;;;;21.50;16.07;;;6.10;82.80;;;;;;4920011;29;20179;-85
2023/04/18 06:14:24;;;;;;;16.73;13.77;;;6.10;82.20;;;;;;4920359;29;20177;-85
2023/04/18 06:16:50;;;;;;;19.47;15.27;;;6.30;82.40;;;;;;4920039;29;20177;-84
2023/04/18 06:19:16;;;;;;;16.53;12.17;;;6.30;82.60;;;;;;4919740;29;20195;-86
2023/04/18 06:21:41;;;;;;;18.87;15.07;;;6.40;81.90;;;;;;4919454;29;20207;-87
2023/04/18 06:24:08;;;;;;;17.67;14.30;;;6.40;81.40;;;;;;4919300;29;20233;-86
2023/04/18 06:26:33;;;;;;;17.97;15.20;;;6.50;81.90;;;;;;4920350;29;20173;-86
2023/04/18 06:28:59;;;;;;;20.20;15.30;;;6.50;81.40;;;;;;4920251;29;20177;-86
2023/04/18 06:31:24;;;;;;;19.23;14.93;;;6.70;81.80;;;;;;4920419;29;20176;-86
2023/04/18 06:33:50;;;;;;;19.20;14.83;;;6.80;81.40;;;;;;4920290;29;20197;-85
2023/04/18 06:36:15;;;;;;;20.90;13.77;;;6.90;81.40;;;;;;4920006;29;20212;-86
2023/04/18 06:38:41;;;;;;;18.63;13.07;;;6.90;80.30;;;;;;4920813;29;20173;-86
2023/04/18 06:41:06;;;;;;;16.63;13.43;;;7.00;80.40;;;;;;4918870;29;20189;-86
2023/04/18 06:43:32;;;;;;;19.33;14.47;;;6.80;80.10;;;;;;4918663;29;20197;-86
2023/04/18 06:45:58;;;;;;;16.53;13.03;;;6.90;80.80;;;;;;4919467;29;20281;-88
2023/04/18 06:48:23;;;;;;;19.40;14.57;;;6.90;79.80;;;;;;4918711;29;20208;-86
2023/04/18 06:50:49;;;;;;;21.50;14.17;;;7.00;80.20;;;;;;4918512;29;20172;-86
2023/04/18 06:53:14;;;;;;;20.50;14.27;;;7.00;79.90;;;;;;4918434;29;20731;-86
2023/04/18 06:55:40;;;;;;;18.07;13.63;;;7.00;79.90;;;;;;4920367;29;20176;-86
2023/04/18 06:58:07;;;;;;;18.93;15.03;;;7.10;79.90;;;;;;4918947;29;20184;-86
2023/04/18 07:00:32;;;;;;;18.23;15.07;;;7.20;80.00;;;;;;4919233;29;20196;-86
2023/04/18 07:02:58;;;;;;;18.83;13.87;;;7.30;79.60;;;;;;4920127;29;20204;-86
2023/04/18 07:05:23;;;;;;;19.53;13.97;;;7.30;79.30;;;;;;4918662;29;20208;-86
2023/04/18 07:07:49;;;;;;;21.53;14.77;;;7.30;78.90;;;;;;4918660;29;20209;-86
2023/04/18 07:10:14;;;;;;;17.97;14.40;;;7.40;79.40;;;;;;4920000;29;20181;-85
2023/04/18 07:12:40;;;;;;;16.97;14.00;;;7.50;78.80;;;;;;4918676;29;20200;-86
2023/04/18 07:15:06;;;;;;;15.87;14.23;;;7.60;78.60;;;;;;4920032;29;20176;-86
2023/04/18 07:17:31;;;;;;;19.63;14.83;;;7.60;78.40;;;;;;4918340;29;20651;-87
2023/04/18 07:19:57;;;;;;;15.00;13.53;;;7.60;78.20;;;;;;4918434;29;20236;-86
2023/04/18 07:22:23;;;;;;;16.20;14.60;;;7.60;77.30;;;;;;4918425;29;20334;-86
2023/04/18 07:24:48;;;;;;;29.20;16.63;;;7.70;77.40;;;;;;4918471;29;20660;-87
2023/04/18 07:27:14;;;;;;;21.37;15.47;;;7.70;77.60;;;;;;4918677;29;20578;-86
2023/04/18 07:29:39;;;;;;;21.13;14.90;;;7.80;77.50;;;;;;4918221;29;20169;-86
2023/04/18 07:32:05;;;;;;;16.40;14.80;;;7.90;77.90;;;;;;4918012;29;20640;-86
2023/04/18 07:34:32;;;;;;;17.23;14.77;;;7.90;76.90;;;;;;4918393;29;20188;-86
2023/04/18 07:36:58;;;;;;;18.97;15.87;;;7.90;76.40;;;;;;4919339;29;20181;-86
2023/04/18 07:39:24;;;;;;;16.30;14.57;;;7.90;76.40;;;;;;4917813;29;20192;-86
2023/04/18 07:41:49;;;;;;;15.73;13.97;;;8.00;76.50;;;;;;4918794;29;20180;-85
2023/04/18 07:44:15;;;;;;;16.63;15.00;;;8.10;77.20;;;;;;4917066;29;20287;-86
2023/04/18 07:46:40;;;;;;;20.33;16.67;;;8.20;76.00;;;;;;4918498;29;20279;-86
2023/04/18 07:49:06;;;;;;;16.80;15.23;;;8.20;75.70;;;;;;4917597;29;20185;-85
2023/04/18 07:51:31;;;;;;;17.87;16.03;;;8.30;75.10;;;;;;4917198;29;20224;-86
2023/04/18 07:53:58;;;;;;;18.73;16.53;;;8.40;76.70;;;;;;4917149;29;20196;-85
2023/04/18 07:56:24;;;;;;;18.83;14.43;;;8.40;74.30;;;;;;4918524;29;20176;-86
2023/04/18 07:58:50;;;;;;;17.80;16.00;;;8.70;76.10;;;;;;4917108;29;20185;-85
2023/04/18 08:01:17;;;;;;;17.83;16.23;;;8.70;74.00;;;;;;4917079;29;20538;-85
2023/04/18 08:03:43;;;;;;;18.80;16.83;;;8.70;73.60;;;;;;4916946;29;20208;-85
2023/04/18 08:06:09;;;;;;;31.77;18.13;;;8.70;73.40;;;;;;4917182;29;20235;-85
2023/04/18 08:08:34;;;;;;;18.37;16.73;;;8.70;73.10;;;;;;4918391;29;20216;-86
2023/04/18 08:11:00;;;;;;;21.80;18.50;;;8.80;73.50;;;;;;4917364;29;20614;-85
2023/04/18 08:13:26;;;;;;;19.67;17.53;;;8.80;72.30;;;;;;4918334;29;20271;-86
2023/04/18 08:15:51;;;;;;;23.83;17.33;;;9.00;73.30;;;;;;4917077;29;20553;-85
2023/04/18 08:18:17;;;;;;;19.10;17.33;;;9.00;72.20;;;;;;4918137;29;20181;-85
2023/04/18 08:20:42;;;;;;;20.10;17.93;;;9.00;72.30;;;;;;4918147;29;20653;-84
2023/04/18 08:23:08;;;;;;;19.40;17.57;;;9.10;72.00;;;;;;4917707;29;20211;-84
2023/04/18 08:25:35;;;;;;;18.60;16.83;;;9.00;71.00;;;;;;4917705;29;20181;-85
2023/04/18 08:28:00;;;;;;;22.07;17.40;;;9.10;71.30;;;;;;4916438;29;20205;-84
2023/04/18 08:30:26;;;;;;;19.47;17.47;;;9.00;70.10;;;;;;4916355;29;20244;-84
2023/04/18 08:32:51;;;;;;;19.93;17.90;;;9.10;71.70;;;;;;4917032;29;20734;-84
2023/04/18 08:35:17;;;;;;;19.70;17.73;;;9.20;71.30;;;;;;4916364;29;20565;-84
2023/04/18 08:37:42;;;;;;;17.50;16.00;;;9.20;70.90;;;;;;4916262;29;20647;-84
2023/04/18 08:40:08;;;;;;;20.70;18.97;;;9.30;70.20;;;;;;4916287;29;20185;-85
2023/04/18 08:42:35;;;;;;;21.33;19.13;;;9.20;69.40;;;;;;4916126;29;20311;-84
2023/04/18 08:45:01;;;;;;;19.57;17.67;;;9.40;72.00;;;;;;4917285;29;20196;-84
2023/04/18 08:47:28;;;;;;;18.03;16.20;;;9.50;71.40;;;;;;4917796;29;20204;-86
2023/04/18 08:49:54;;;;;;;18.30;16.63;;;9.40;69.50;;;;;;4917216;29;20185;-86
2023/04/18 08:52:22;;;;;;;18.43;16.53;;;9.50;71.30;;;;;;4916181;29;20204;-86
2023/04/18 08:54:49;;;;;;;19.33;17.23;;;9.50;70.20;;;;;;4916935;29;20210;-86
2023/04/18 08:57:16;;;;;;;17.43;15.80;;;9.70;72.10;;;;;;4916180;29;20185;-87
2023/04/18 08:59:44;;;;;;;19.40;17.50;;;9.60;69.40;;;;;;4916191;29;20193;-86
2023/04/18 09:02:14;;;;;;;16.23;14.73;;;9.70;70.10;;;;;;4917157;29;20268;-86
2023/04/18 09:04:44;;;;;;;19.03;17.07;;;9.80;70.90;;;;;;4916134;29;20639;-86
2023/04/18 09:07:14;;;;;;;21.17;18.07;;;9.90;71.30;;;;;;4917207;29;20201;-86
2023/04/18 09:09:42;;;;;;;15.17;13.60;;;10.10;72.00;;;;;;4916188;29;20268;-87
2023/04/18 09:12:08;;;;;;;22.53;19.90;;;10.20;71.50;;;;;;4917180;29;20181;-86
2023/04/18 09:14:41;;;;;;;17.20;15.60;;;10.20;71.70;;;;;;4916068;29;20219;-87
2023/04/18 09:17:09;;;;;;;15.87;14.67;;;10.30;71.90;;;;;;4915947;29;20586;-87
2023/04/18 09:19:35;;;;;;;15.13;13.93;;;10.30;71.50;;;;;;4915956;29;20694;-86
2023/04/18 09:22:03;;;;;;;15.63;14.33;;;10.20;73.30;;;;;;4915928;29;20275;-86
2023/04/18 09:24:29;;;;;;;15.27;13.77;;;10.00;72.60;;;;;;4916002;29;20266;-87
2023/04/18 09:26:56;;;;;;;17.97;16.33;;;10.20;73.10;;;;;;4915857;29;20707;-87
2023/04/18 09:29:40;;;;;;;15.77;14.30;;;10.00;72.50;;;;;;4915884;29;20188;-86
2023/04/18 09:32:06;;;;;;;17.73;15.87;;;10.00;73.10;;;;;;4915758;29;20271;-85
2023/04/18 09:34:33;;;;;;;18.30;14.53;;;10.10;74.50;;;;;;4915758;29;20216;-87
2023/04/18 09:37:06;;;;;;;18.73;16.97;;;10.30;74.30;;;;;;4915704;29;20589;-87
2023/04/18 09:39:32;;;;;;;18.37;16.63;;;10.30;73.90;;;;;;4917069;29;20212;-87
2023/04/18 09:41:58;;;;;;;17.33;15.63;;;10.20;74.20;;;;;;4916408;29;20216;-88
2023/04/18 09:44:24;;;;;;;18.77;16.97;;;10.00;74.40;;;;;;4918130;29;20197;-88
2023/04/18 09:46:49;;;;;;;19.40;17.30;;;10.10;75.30;;;;;;4922194;29;20214;-88
2023/04/18 09:49:16;;;;;;;17.53;15.93;;;10.30;75.50;;;;;;4921918;29;20215;-88
2023/04/18 09:51:45;;;;;;;17.67;16.00;;;10.30;74.30;;;;;;4922709;29;20193;-88
2023/04/18 09:54:18;;;;;;;18.63;16.77;;;10.50;73.40;;;;;;4920849;29;20255;-87
2023/04/18 09:56:45;;;;;;;18.37;16.67;;;10.60;74.00;;;;;;4920030;29;20647;-88
2023/04/18 09:59:13;;;;;;;19.07;17.07;;;10.90;74.20;;;;;;4922880;29;20208;-88
2023/04/18 10:01:39;;;;;;;14.00;12.90;;;11.00;72.10;;;;;;4923346;29;20219;-88
2023/04/18 10:04:06;;;;;;;20.23;16.67;;;11.20;71.80;;;;;;4922399;29;20667;-87
2023/04/18 10:06:33;;;;;;;16.43;15.03;;;10.80;70.60;;;;;;4921425;29;20591;-87
2023/04/18 10:09:02;;;;;;;20.57;18.60;;;10.70;72.10;;;;;;4919532;29;20223;-87
2023/04/18 10:11:30;;;;;;;17.57;15.87;;;10.50;72.40;;;;;;4921106;29;20184;-87
2023/04/18 10:14:00;;;;;;;19.97;17.93;;;10.30;73.60;;;;;;4920194;29;20200;-87
2023/04/18 10:16:28;;;;;;;18.97;16.50;;;10.30;74.80;;;;;;4920763;29;20549;-88
2023/04/18 10:18:54;;;;;;;15.90;14.60;;;10.30;75.10;;;;;;4921830;29;20180;-88
2023/04/18 10:21:20;;;;;;;14.13;12.77;;;10.20;72.40;;;;;;4921733;29;20184;-88
2023/04/18 10:23:47;;;;;;;16.70;15.20;;;10.60;72.10;;;;;;4920699;29;20229;-88
2023/04/18 10:26:14;;;;;;;18.80;17.10;;;10.70;70.90;;;;;;4920914;29;20184;-88
2023/04/18 10:28:56;;;;;;;15.47;14.03;;;10.70;70.60;;;;;;4921790;29;20259;-88
2023/04/18 10:31:23;;;;;;;14.73;13.60;;;10.90;71.50;;;;;;4918944;29;20208;-87
2023/04/18 10:33:59;;;;;;;15.27;13.97;;;10.70;71.50;;;;;;4918951;29;20581;-88
2023/04/18 10:36:27;;;;;;;19.20;17.40;;;10.50;71.10;;;;;;4920080;29;20184;-86
2023/04/18 10:39:02;;;;;;;14.93;13.73;;;10.60;70.80;;;;;;4918515;29;20176;-86
2023/04/18 10:41:33;;;;;;;17.27;15.77;;;10.70;72.90;;;;;;4918531;29;20168;-86
2023/04/18 10:44:18;;;;;;;16.03;14.53;;;10.60;70.80;;;;;;4919549;29;20587;-87
2023/04/18 10:46:49;;;;;;;11.83;11.03;;;10.60;72.30;;;;;;4919143;29;20213;-87
2023/04/18 10:49:23;;;;;;;14.10;12.90;;;10.40;70.20;;;;;;4918408;29;20187;-87
2023/04/18 10:52:00;;;;;;;15.20;13.90;;;10.30;70.40;;;;;;4918738;29;20189;-87
2023/04/18 10:54:42;;;;;;;12.80;11.90;;;10.20;71.70;;;;;;4919541;29;20168;-87
2023/04/18 10:57:10;;;;;;;12.23;11.37;;;10.00;70.70;;;;;;4918338;29;20236;-88
2023/04/18 10:59:41;;;;;;;17.77;16.17;;;9.90;69.90;;;;;;4918293;29;20193;-87
2023/04/18 11:02:24;;;;;;;16.03;14.63;;;10.00;72.70;;;;;;4918233;29;20205;-87
2023/04/18 11:04:55;;;;;;;16.40;14.90;;;10.00;70.40;;;;;;4918064;29;20187;-86
2023/04/18 11:07:37;;;;;;;14.00;13.00;;;10.00;70.10;;;;;;4917963;29;20200;-86
2023/04/18 11:10:07;;;;;;;17.70;16.20;;;9.90;70.40;;;;;;4918021;29;20172;-86
2023/04/18 11:12:36;;;;;;;16.67;15.03;;;9.90;71.70;;;;;;4917858;29;20197;-84
2023/04/18 11:15:08;;;;;;;21.37;16.97;;;9.90;70.40;;;;;;4919002;29;20558;-84
2023/04/18 11:17:34;;;;;;;17.50;16.10;;;9.80;71.60;;;;;;4919042;29;20579;-85
2023/04/18 11:20:08;;;;;;;17.20;15.47;;;9.80;71.40;;;;;;4919077;29;20228;-84
2023/04/18 11:23:02;;;;;;;18.13;16.60;;;9.90;73.00;;;;;;4918840;29;20196;-85
2023/04/18 11:25:35;;;;;;;17.63;16.13;;;9.80;71.60;;;;;;4914293;29;20189;-85
2023/04/18 11:28:02;;;;;;;16.97;15.30;;;9.70;72.30;;;;;;4918726;29;20197;-84
2023/04/18 11:30:35;;;;;;;17.83;16.03;;;;;;;;;;4918658;29;20175;-85
2023/04/18 11:33:08;;;;;;;20.27;17.23;;;9.70;73.90;;;;;;4917492;29;20196;-84
2023/04/18 11:35:41;;;;;;;22.57;15.53;;;9.80;74.00;;;;;;4918798;29;20165;-84
2023/04/18 11:38:09;;;;;;;18.50;16.70;;;9.90;73.60;;;;;;4917364;29;20181;-84
2023/04/18 11:40:35;;;;;;;18.63;16.73;;;10.10;74.10;;;;;;4918655;29;20182;-84
2023/04/18 11:43:02;;;;;;;17.97;16.07;;;10.30;73.00;;;;;;4918706;29;20563;-84
2023/04/18 11:45:28;;;;;;;18.87;16.90;;;10.30;72.70;;;;;;4918353;29;20204;-83
2023/04/18 11:47:56;;;;;;;24.73;17.80;;;10.40;73.30;;;;;;4917157;29;20211;-84
2023/04/18 11:50:22;;;;;;;19.37;17.37;;;10.40;73.60;;;;;;4917238;29;20177;-84
2023/04/18 11:52:53;;;;;;;18.43;16.53;;;10.60;74.70;;;;;;4918405;29;20247;-84
2023/04/18 11:55:22;;;;;;;18.20;16.70;;;10.60;71.60;;;;;;4917074;29;20180;-85
2023/04/18 11:57:55;;;;;;;19.80;17.47;;;10.60;71.60;;;;;;4916943;29;20180;-84
2023/04/18 12:00:38;;;;;;;21.00;18.97;;;10.70;72.60;;;;;;4918201;29;20208;-84
2023/04/18 12:03:06;;;;;;;19.83;17.83;;;10.80;71.70;;;;;;4916850;29;20251;-84
2023/04/18 12:05:34;;;;;;;19.77;17.67;;;10.80;71.70;;;;;;4918882;29;20248;-84
2023/04/18 12:08:17;;;;;;;17.80;16.20;;;11.00;71.30;;;;;;4916097;29;20201;-84
2023/04/18 12:10:50;;;;;;;18.63;16.93;;;11.20;71.00;;;;;;4918045;29;20165;-84
2023/04/18 12:13:16;;;;;;;18.97;17.40;;;11.20;70.40;;;;;;4916802;29;20279;-84
2023/04/18 12:15:44;;;;;;;18.77;17.13;;;11.20;69.30;;;;;;4918011;29;20180;-85
2023/04/18 12:18:14;;;;;;;16.23;14.73;;;11.20;70.10;;;;;;4916751;29;20191;-84
2023/04/18 12:20:52;;;;;;;18.13;16.23;;;11.20;68.00;;;;;;4918594;29;20534;-84
2023/04/18 12:23:35;;;;;;;14.90;13.83;;;11.30;69.40;;;;;;4918770;29;20192;-84
2023/04/18 12:26:03;;;;;;;15.93;14.63;;;11.30;67.50;;;;;;4918075;29;20160;-83
2023/04/18 12:28:29;;;;;;;15.40;14.27;;;11.30;67.80;;;;;;4916403;29;20204;-84
2023/04/18 12:30:55;;;;;;;14.77;13.77;;;11.30;67.70;;;;;;4916461;29;20181;-84
2023/04/18 12:33:21;;;;;;;16.27;14.97;;;11.30;67.40;;;;;;4917557;29;20192;-84
2023/04/18 12:35:47;;;;;;;14.30;13.20;;;11.30;68.20;;;;;;4916460;29;20173;-84